Time;durP1;ratioP1;P1;durP2;ratioP2;P2;SDS_P1;SDS_P2;PMS_P1;PMS_P2;Temp;Humidity;BMP_temperature;BMP_pressure;BME280_temperature;BME280_humidity;BME280_pressure;Samples;Min_cycle;Max_cycle;Signal;HPM_P1;HPM_P2
2022/11/12 00:00:12;;;;;;;;;;;;;;;8.96;97.23;103143.44;5016953;28;19917;-74
2022/11/12 00:02:37;;;;;;;;;;;;;;;8.95;97.30;103147.78;5017302;28;19913;-74
2022/11/12 00:05:02;;;;;;;;;;;;;;;8.95;97.38;103141.66;5016756;28;19924;-74
2022/11/12 00:07:28;;;;;;;;;;;;;;;8.94;97.49;103143.41;5017480;28;19955;-74
2022/11/12 00:09:53;;;;;;;;;;;;;;;8.94;97.39;103147.78;5017346;28;19925;-74
2022/11/12 00:12:18;;;;;;;;;;;;;;;8.95;97.40;103144.28;5017203;28;19988;-74
2022/11/12 00:14:43;;;;;;;;;;;;;;;8.94;97.26;103150.41;5021777;28;19929;-74
2022/11/12 00:17:08;;;;;;;;;;;;;;;8.93;97.43;103146.91;5021073;28;19913;-74
2022/11/12 00:19:34;;;;;;;;;;;;;;;8.95;97.30;103149.50;5016303;28;19952;-74
2022/11/12 00:21:59;;;;;;;;;;;;;;;8.93;97.47;103144.31;5021674;28;19914;-74
2022/11/12 00:24:24;;;;;;;;;;;;;;;8.93;97.44;103144.31;5022057;28;19936;-74
2022/11/12 00:26:50;;;;;;;;;;;;;;;8.94;97.67;103153.88;5022825;28;19985;-74
2022/11/12 00:29:15;;;;;;;;;;;;;;;8.94;97.67;103150.41;5021369;28;19917;-74
2022/11/12 00:31:40;;;;;;;;;;;;;;;8.93;97.65;103151.25;5022670;28;19917;-74
2022/11/12 00:34:06;;;;;;;;;;;;;;;8.93;97.77;103153.88;5021558;28;19921;-74
2022/11/12 00:36:32;;;;;;;;;;;;;;;8.94;97.51;103150.41;5022562;28;19925;-74
2022/11/12 00:38:57;;;;;;;;;;;;;;;8.93;97.79;103154.75;5022023;28;19913;-74
2022/11/12 00:41:22;;;;;;;;;;;;;;;8.93;97.92;103148.63;5022169;28;19940;-74
2022/11/12 00:43:47;;;;;;;;;;;;;;;8.93;98.09;103151.25;5022062;28;19921;-74
2022/11/12 00:46:13;;;;;;;;;;;;;;;8.93;98.17;103159.09;5021695;28;19916;-74
2022/11/12 00:48:38;;;;;;;;;;;;;;;8.93;97.90;103153.88;5022135;28;19919;-74
2022/11/12 00:51:04;;;;;;;;;;;;;;;8.94;98.43;103153.88;5022023;28;19929;-74
2022/11/12 00:53:29;;;;;;;;;;;;;;;8.94;98.17;103150.41;5021731;28;20232;-74
2022/11/12 00:56:01;;;;;;;;;;;;;;;8.93;98.28;103149.53;5022065;28;19945;-74
2022/11/12 00:58:34;;;;;;;;;;;;;;;8.94;98.45;103148.66;5022257;28;19909;-74
2022/11/12 01:01:07;;;;;;;;;;;;;;;8.95;98.50;103144.28;5021737;28;19944;-74
2022/11/12 01:03:32;;;;;;;;;;;;;;;8.95;98.83;103145.19;5021239;28;20001;-74
2022/11/12 01:06:08;;;;;;;;;;;;;;;8.96;98.72;103141.69;5021648;28;19922;-74
2022/11/12 01:08:34;;;;;;;;;;;;;;;8.96;98.88;103140.81;5022246;28;19906;-74
2022/11/12 01:11:05;;;;;;;;;;;;;;;8.95;98.49;103144.28;5021475;28;19913;-74
2022/11/12 01:13:30;;;;;;;;;;;;;;;8.96;98.03;103146.91;5021887;28;19980;-74
2022/11/12 01:15:56;;;;;;;;;;;;;;;8.98;98.38;103149.53;5021934;28;19929;-74
2022/11/12 01:18:21;;;;;;;;;;;;;;;8.99;98.50;103148.69;5021342;28;19925;-74
2022/11/12 01:20:46;;;;;;;;;;;;;;;8.99;99.00;103149.53;5021901;28;19920;-74
2022/11/12 01:23:11;;;;;;;;;;;;;;;9.00;99.18;103155.63;5012398;28;20098;-74
2022/11/12 01:25:37;;;;;;;;;;;;;;;9.01;99.11;103155.63;5021919;28;19916;-74
2022/11/12 01:28:02;;;;;;;;;;;;;;;9.03;99.42;103153.03;5021506;28;19959;-74
2022/11/12 01:30:27;;;;;;;;;;;;;;;9.01;99.67;103171.31;5015501;28;19909;-74
2022/11/12 01:32:53;;;;;;;;;;;;;;;9.04;99.73;103170.47;5022383;28;19993;-74
2022/11/12 01:35:18;;;;;;;;;;;;;;;9.05;99.90;103169.59;5021374;28;19925;-74
2022/11/12 01:37:43;;;;;;;;;;;;;;;9.05;99.98;103158.28;5021854;28;19913;-74
2022/11/12 01:40:09;;;;;;;;;;;;;;;9.05;100.00;103159.13;5020842;28;19960;-74
2022/11/12 01:42:34;;;;;;;;;;;;;;;9.06;100.00;103154.78;5021644;28;19956;-74
2022/11/12 01:44:59;;;;;;;;;;;;;;;9.06;100.00;103155.66;5021141;28;19917;-74
2022/11/12 01:47:28;;;;;;;;;;;;;;;9.07;100.00;103151.31;5021617;28;19917;-74
2022/11/12 01:50:03;;;;;;;;;;;;;;;9.07;100.00;103139.09;5021377;28;19956;-74
2022/11/12 01:52:35;;;;;;;;;;;;;;;9.09;100.00;103152.19;5021851;28;20000;-74
2022/11/12 01:55:04;;;;;;;;;;;;;;;9.09;100.00;103144.34;5021123;28;19916;-74
2022/11/12 01:57:32;;;;;;;;;;;;;;;9.10;100.00;103143.47;5021517;28;20160;-74
2022/11/12 02:00:00;;;;;;;;;;;;;;;9.11;100.00;103139.97;5021398;28;20161;-74
2022/11/12 02:02:27;;;;;;;;;;;;;;;9.11;100.00;103140.84;5021421;28;19920;-74
2022/11/12 02:04:53;;;;;;;;;;;;;;;9.12;100.00;103139.13;5021236;28;20242;-74
2022/11/12 02:07:21;;;;;;;;;;;;;;;9.13;100.00;103151.31;5020369;28;20008;-74
2022/11/12 02:09:46;;;;;;;;;;;;;;;9.13;100.00;103146.97;5021438;28;19913;-74
2022/11/12 02:13:56;;;;;;;;;;;;;;;9.13;100.00;103139.13;5020568;28;20029;-74
2022/11/12 02:14:56;;;;;;;;;;;;;;;9.15;100.00;103133.88;5020703;28;20116;-74
2022/11/12 02:17:22;;;;;;;;;;;;;;;9.15;100.00;103129.53;5020369;28;19917;-74
2022/11/12 02:19:47;;;;;;;;;;;;;;;9.16;100.00;103122.56;5020927;28;20192;-74
2022/11/12 02:22:12;;;;;;;;;;;;;;;9.16;100.00;103125.19;5020526;28;19971;-74
2022/11/12 02:24:38;;;;;;;;;;;;;;;9.17;100.00;103127.81;5020691;28;19970;-74
2022/11/12 02:27:04;;;;;;;;;;;;;;;9.17;100.00;103121.72;5020662;28;19917;-74
2022/11/12 02:29:30;;;;;;;;;;;;;;;9.18;100.00;103121.69;5021363;28;19909;-74
2022/11/12 02:31:55;;;;;;;;;;;;;;;9.18;100.00;103126.91;5020167;28;19944;-74
2022/11/12 02:34:20;;;;;;;;;;;;;;;9.19;100.00;103119.97;5020325;28;19932;-74
2022/11/12 02:36:46;;;;;;;;;;;;;;;9.20;100.00;103116.47;5019997;28;19996;-74
2022/11/12 02:39:11;;;;;;;;;;;;;;;9.20;100.00;103116.47;5019837;28;19968;-74
2022/11/12 02:41:36;;;;;;;;;;;;;;;9.21;100.00;103115.59;5020103;28;19988;-74
2022/11/12 02:44:02;;;;;;;;;;;;;;;9.22;100.00;103114.72;5019755;28;19913;-74
2022/11/12 02:46:27;;;;;;;;;;;;;;;9.22;100.00;103110.38;5020663;28;19963;-74
2022/11/12 02:48:52;;;;;;;;;;;;;;;9.21;100.00;103106.00;5019722;28;20330;-74
2022/11/12 02:51:17;;;;;;;;;;;;;;;9.23;100.00;103112.09;5019616;28;19928;-74
2022/11/12 02:53:43;;;;;;;;;;;;;;;9.24;100.00;103099.94;5020254;28;19916;-74
2022/11/12 02:56:08;;;;;;;;;;;;;;;9.25;100.00;103109.50;5019883;28;20156;-74
2022/11/12 02:58:33;;;;;;;;;;;;;;;9.25;100.00;103106.88;5002275;28;19917;-74
2022/11/12 03:00:58;;;;;;;;;;;;;;;9.26;100.00;103111.25;5019621;28;19996;-74
2022/11/12 03:03:23;;;;;;;;;;;;;;;9.27;100.00;103106.91;5019768;28;19999;-74
2022/11/12 03:05:59;;;;;;;;;;;;;;;9.28;100.00;103114.75;5020254;28;19932;-74
2022/11/12 03:08:25;;;;;;;;;;;;;;;9.29;100.00;103116.47;5019771;28;19906;-74
2022/11/12 03:10:50;;;;;;;;;;;;;;;9.30;100.00;103114.75;5019836;28;19981;-74
2022/11/12 03:13:16;;;;;;;;;;;;;;;9.30;100.00;103112.13;5018892;28;19913;-74
2022/11/12 03:15:41;;;;;;;;;;;;;;;9.31;100.00;103116.47;5020041;28;19914;-74
2022/11/12 03:18:06;;;;;;;;;;;;;;;9.31;100.00;103106.03;5019045;28;19913;-74
2022/11/12 03:20:33;;;;;;;;;;;;;;;9.32;100.00;103105.16;5019924;28;20241;-74
2022/11/12 03:23:00;;;;;;;;;;;;;;;9.33;100.00;103106.88;5019053;28;19928;-74
2022/11/12 03:25:26;;;;;;;;;;;;;;;9.34;100.00;103111.25;5019880;28;19913;-74
2022/11/12 03:28:05;;;;;;;;;;;;;;;9.34;100.00;103116.50;5019654;28;20159;-74
2022/11/12 03:30:32;;;;;;;;;;;;;;;9.34;100.00;103112.13;5000300;28;19916;-74
2022/11/12 03:32:57;;;;;;;;;;;;;;;9.35;100.00;103110.38;4999720;28;19921;-74
2022/11/12 03:35:22;;;;;;;;;;;;;;;9.36;100.00;103114.75;5017365;28;19921;-73
2022/11/12 03:37:48;;;;;;;;;;;;;;;9.36;100.00;103113.00;5017603;28;20147;-73
2022/11/12 03:40:13;;;;;;;;;;;;;;;9.37;100.00;103111.28;5015969;28;19956;-73
2022/11/12 03:42:43;;;;;;;;;;;;;;;9.37;100.00;103119.13;5017822;28;19957;-73
2022/11/12 03:45:08;;;;;;;;;;;;;;;9.37;100.00;103116.50;5016723;28;19939;-73
2022/11/12 03:47:33;;;;;;;;;;;;;;;9.38;100.00;103126.94;5016711;28;19953;-73
2022/11/12 03:49:59;;;;;;;;;;;;;;;9.37;100.00;103119.97;5016554;28;19921;-73
2022/11/12 03:52:24;;;;;;;;;;;;;;;9.37;100.00;103119.13;5017714;28;19922;-73
2022/11/12 03:54:49;;;;;;;;;;;;;;;9.39;100.00;103120.00;5017454;28;20201;-73
2022/11/12 03:57:14;;;;;;;;;;;;;;;9.39;100.00;103120.84;5016926;28;19955;-73
2022/11/12 03:59:40;;;;;;;;;;;;;;;9.38;100.00;103111.25;5017297;28;19921;-73
2022/11/12 04:02:05;;;;;;;;;;;;;;;9.38;100.00;103118.22;5015561;28;19910;-73
2022/11/12 04:08:34;;;;;;;;;;;;;;;9.38;100.00;103110.38;5017009;28;19955;-73
2022/11/12 04:09:59;;;;;;;;;;;;;;;9.38;100.00;103116.47;5016739;28;19928;-73
2022/11/12 04:15:09;;;;;;;;;;;;;;;9.38;100.00;103123.47;5016248;28;19967;-73
2022/11/12 04:23:02;;;;;;;;;;;;;;;9.34;100.00;103109.50;5016505;28;19979;-73
2022/11/12 04:28:11;;;;;;;;;;;;;;;9.33;100.00;103114.72;5016627;28;20277;-73
2022/11/12 04:30:36;;;;;;;;;;;;;;;9.32;100.00;103111.25;5016891;28;19921;-73
2022/11/12 04:33:01;;;;;;;;;;;;;;;9.31;100.00;103113.88;5017022;28;20394;-73
2022/11/12 04:35:27;;;;;;;;;;;;;;;9.29;100.00;103121.69;5017038;28;19921;-73
2022/11/12 04:37:52;;;;;;;;;;;;;;;9.29;100.00;103115.59;5017051;28;20164;-73
2022/11/12 04:45:50;;;;;;;;;;;;;;;9.25;100.00;103113.88;5016797;28;19976;-73
2022/11/12 04:48:15;;;;;;;;;;;;;;;9.22;100.00;103109.50;5016634;28;19912;-73
2022/11/12 04:50:41;;;;;;;;;;;;;;;9.21;100.00;103108.63;5017075;28;19917;-73
2022/11/12 04:53:06;;;;;;;;;;;;;;;9.20;100.00;103099.06;5016586;28;19913;-73
2022/11/12 04:55:32;;;;;;;;;;;;;;;9.17;100.00;103093.81;5016892;28;19916;-73
2022/11/12 04:57:57;;;;;;;;;;;;;;;9.17;100.00;103087.72;5017059;28;19917;-73
2022/11/12 05:00:22;;;;;;;;;;;;;;;9.15;100.00;103085.09;5020338;28;19917;-73
2022/11/12 05:02:48;;;;;;;;;;;;;;;9.15;100.00;103092.06;5020390;28;19921;-73
2022/11/12 05:05:13;;;;;;;;;;;;;;;9.13;100.00;103092.06;5019897;28;19914;-73
2022/11/12 05:07:39;;;;;;;;;;;;;;;9.12;100.00;103092.94;5020234;28;20185;-73
2022/11/12 05:10:04;;;;;;;;;;;;;;;9.12;100.00;103092.06;5019965;28;19924;-73
2022/11/12 05:12:29;;;;;;;;;;;;;;;9.09;100.00;103082.47;5020200;28;20108;-73
2022/11/12 05:14:54;;;;;;;;;;;;;;;9.10;100.00;103083.34;5020066;28;20331;-73
2022/11/12 05:17:20;;;;;;;;;;;;;;;9.08;100.00;103085.97;5019469;28;20145;-73
2022/11/12 05:19:45;;;;;;;;;;;;;;;9.07;100.00;103084.19;5020011;28;19952;-73
2022/11/12 05:22:11;;;;;;;;;;;;;;;9.05;100.00;103085.94;5019643;28;19909;-73
2022/11/12 05:24:40;;;;;;;;;;;;;;;9.04;100.00;103079.00;5020016;28;19940;-73
2022/11/12 05:27:10;;;;;;;;;;;;;;;9.03;100.00;103083.31;5019583;28;19913;-73
2022/11/12 05:29:36;;;;;;;;;;;;;;;9.02;100.00;103084.22;5020038;28;19983;-73
2022/11/12 05:32:01;;;;;;;;;;;;;;;9.01;100.00;103087.69;5019536;28;19913;-73
2022/11/12 05:34:26;;;;;;;;;;;;;;;8.99;100.00;103080.72;5019747;28;19913;-73
2022/11/12 05:36:52;;;;;;;;;;;;;;;8.97;100.00;103085.06;5019801;28;19921;-73
2022/11/12 05:39:17;;;;;;;;;;;;;;;8.96;100.00;103081.56;5019094;28;19944;-73
2022/11/12 05:41:42;;;;;;;;;;;;;;;8.94;99.87;103078.09;5019756;28;19948;-73
2022/11/12 05:44:08;;;;;;;;;;;;;;;8.92;99.59;103077.22;5018921;28;20118;-73
2022/11/12 05:46:33;;;;;;;;;;;;;;;8.91;99.70;103075.47;5019500;28;19924;-73
2022/11/12 05:48:59;;;;;;;;;;;;;;;8.89;99.46;103074.59;5018903;28;19920;-73
2022/11/12 05:51:24;;;;;;;;;;;;;;;8.88;99.19;103079.81;5019736;28;20216;-73
2022/11/12 05:53:49;;;;;;;;;;;;;;;8.85;99.20;103075.47;5015664;28;20127;-73
2022/11/12 05:56:14;;;;;;;;;;;;;;;8.83;99.16;103085.03;5019019;28;19917;-73
2022/11/12 05:58:40;;;;;;;;;;;;;;;8.82;98.91;103085.88;5019221;28;19951;-73
2022/11/12 06:01:05;;;;;;;;;;;;;;;8.80;98.76;103092.84;5018949;28;19910;-73
2022/11/12 06:03:30;;;;;;;;;;;;;;;8.77;98.76;103085.03;5018981;28;19913;-73
2022/11/12 06:05:56;;;;;;;;;;;;;;;8.76;98.74;103084.13;5019567;28;20200;-73
2022/11/12 06:08:21;;;;;;;;;;;;;;;8.73;98.44;103081.53;5018600;28;19910;-73
2022/11/12 06:10:50;;;;;;;;;;;;;;;8.72;98.31;103091.97;5018297;28;20226;-73
2022/11/12 06:13:16;;;;;;;;;;;;;;;8.70;98.17;103091.97;5016041;28;19978;-73
2022/11/12 06:15:41;;;;;;;;;;;;;;;8.68;98.20;103090.19;5019005;28;20000;-73
2022/11/12 06:18:06;;;;;;;;;;;;;;;8.67;98.30;103091.09;5018540;28;19909;-73
2022/11/12 06:20:32;;;;;;;;;;;;;;;8.65;98.16;103091.06;5018630;28;20075;-73
2022/11/12 06:22:57;;;;;;;;;;;;;;;8.62;97.85;103089.34;5018659;28;19991;-73
2022/11/12 06:25:22;;;;;;;;;;;;;;;8.63;97.99;103103.25;5017583;28;20128;-73
2022/11/12 06:27:48;;;;;;;;;;;;;;;8.60;97.99;103100.63;5018779;28;20244;-73
2022/11/12 06:30:13;;;;;;;;;;;;;;;8.58;97.92;103097.16;5017867;28;19917;-73
2022/11/12 06:32:38;;;;;;;;;;;;;;;8.56;97.42;103094.53;5018285;28;19913;-73
2022/11/12 06:35:04;;;;;;;;;;;;;;;8.54;97.60;103098.88;5017140;28;19960;-73
2022/11/12 06:37:29;;;;;;;;;;;;;;;8.52;97.63;103100.59;5018734;28;19917;-73
2022/11/12 06:39:54;;;;;;;;;;;;;;;8.50;97.39;103098.88;5018523;28;20280;-73
2022/11/12 06:42:20;;;;;;;;;;;;;;;8.47;97.30;103099.72;5018094;28;20231;-73
2022/11/12 06:44:45;;;;;;;;;;;;;;;8.45;96.92;103091.88;5018183;28;20138;-73
2022/11/12 06:47:10;;;;;;;;;;;;;;;8.42;97.16;103099.72;5017774;28;19921;-73
2022/11/12 06:49:35;;;;;;;;;;;;;;;8.40;96.89;103095.28;5017888;28;19920;-73
2022/11/12 06:52:00;;;;;;;;;;;;;;;8.38;97.09;103100.50;5017473;28;20024;-73
2022/11/12 06:54:26;;;;;;;;;;;;;;;8.36;96.73;103101.38;5017489;28;19984;-73
2022/11/12 06:56:51;;;;;;;;;;;;;;;8.34;96.65;103106.59;5018200;28;19960;-73
2022/11/12 06:59:16;;;;;;;;;;;;;;;8.32;96.55;103105.72;5017463;28;20200;-73
2022/11/12 07:01:42;;;;;;;;;;;;;;;8.30;96.91;103110.06;5017782;28;20219;-73
2022/11/12 07:04:07;;;;;;;;;;;;;;;8.29;96.76;103108.28;5016797;28;20199;-73
2022/11/12 07:06:32;;;;;;;;;;;;;;;8.27;96.84;103113.50;5017016;28;19914;-73
2022/11/12 07:08:58;;;;;;;;;;;;;;;8.26;96.87;103119.59;5017984;28;19951;-73
2022/11/12 07:11:23;;;;;;;;;;;;;;;8.25;96.75;103122.19;5017629;28;19905;-73
2022/11/12 07:13:49;;;;;;;;;;;;;;;8.24;96.71;103115.22;5037997;28;20278;-73
2022/11/12 07:16:17;;;;;;;;;;;;;;;8.23;96.73;103123.94;5012724;28;20008;-73
2022/11/12 07:18:43;;;;;;;;;;;;;;;8.22;96.99;103117.84;5016861;28;19924;-73
2022/11/12 07:21:10;;;;;;;;;;;;;;;8.20;97.03;103127.38;5016119;28;19921;-73
2022/11/12 07:23:35;;;;;;;;;;;;;;;8.20;96.76;103118.69;5016138;28;19913;-73
2022/11/12 07:26:27;;;;;;;;;;;;;;;8.19;97.24;103124.78;5015576;28;19964;-73
2022/11/12 07:28:55;;;;;;;;;;;;;;;8.19;97.20;103123.03;4993512;28;19920;-73
2022/11/12 07:31:20;;;;;;;;;;;;;;;8.17;97.01;103127.38;5007417;28;19913;-73
2022/11/12 07:33:47;;;;;;;;;;;;;;;8.16;97.22;103117.78;5007646;28;19924;-73
2022/11/12 07:36:14;;;;;;;;;;;;;;;8.16;97.20;103120.41;5012719;28;20155;-73
2022/11/12 07:38:40;;;;;;;;;;;;;;;8.15;97.45;103105.63;5018315;28;19909;-73
2022/11/12 07:41:07;;;;;;;;;;;;;;;8.15;97.36;103110.84;5016256;28;19952;-73
2022/11/12 07:43:33;;;;;;;;;;;;;;;8.15;97.21;103118.69;5015786;28;20164;-73
2022/11/12 07:45:59;;;;;;;;;;;;;;;8.15;97.51;103120.38;5018068;28;20134;-74
2022/11/12 07:48:25;;;;;;;;;;;;;;;8.14;97.30;103122.13;5016822;28;19905;-73
2022/11/12 07:50:50;;;;;;;;;;;;;;;8.15;97.54;103128.22;5019201;28;19925;-73
2022/11/12 07:53:15;;;;;;;;;;;;;;;8.15;97.53;103125.63;5015524;28;19999;-73
2022/11/12 07:55:40;;;;;;;;;;;;;;;8.14;97.58;103116.06;5016324;28;20271;-74
2022/11/12 07:58:06;;;;;;;;;;;;;;;8.14;97.49;103116.06;5015532;28;19937;-73
2022/11/12 08:00:31;;;;;;;;;;;;;;;8.14;97.53;103134.31;5015221;28;19928;-73
2022/11/12 08:03:00;;;;;;;;;;;;;;;8.12;97.70;103129.09;5004336;28;20377;-74
2022/11/12 08:05:26;;;;;;;;;;;;;;;8.12;97.68;103136.06;5014293;28;19962;-73
2022/11/12 08:07:53;;;;;;;;;;;;;;;8.12;97.78;103134.31;5015340;28;19944;-73
2022/11/12 08:10:18;;;;;;;;;;;;;;;8.12;97.89;103133.44;5015099;28;19984;-73
2022/11/12 08:12:44;;;;;;;;;;;;;;;8.12;97.85;103139.53;5015471;28;19992;-73
2022/11/12 08:15:09;;;;;;;;;;;;;;;8.12;97.95;103134.31;5010088;28;20164;-73
2022/11/12 08:17:37;;;;;;;;;;;;;;;8.13;97.85;103137.78;5014834;28;20144;-73
2022/11/12 08:20:02;;;;;;;;;;;;;;;8.11;98.08;103137.78;5041579;28;20114;-73
2022/11/12 08:22:27;;;;;;;;;;;;;;;8.11;98.17;103135.16;5030721;28;19915;-73
2022/11/12 08:24:53;;;;;;;;;;;;;;;8.11;98.09;103148.22;5025669;28;19924;-73
2022/11/12 08:27:18;;;;;;;;;;;;;;;8.12;98.40;103146.50;5033029;28;19921;-73
2022/11/12 08:29:43;;;;;;;;;;;;;;;8.13;98.46;103135.19;5017974;28;20152;-73
2022/11/12 08:32:08;;;;;;;;;;;;;;;8.12;98.66;103136.91;5015909;28;19916;-73
2022/11/12 08:34:35;;;;;;;;;;;;;;;8.13;98.59;103145.63;5024139;28;19920;-73
2022/11/12 08:37:00;;;;;;;;;;;;;;;8.14;98.93;103140.41;5028190;28;19921;-73
2022/11/12 08:39:25;;;;;;;;;;;;;;;8.14;99.08;103137.81;5020823;28;19976;-73
2022/11/12 08:41:50;;;;;;;;;;;;;;;8.15;99.01;103133.44;5036303;28;19948;-73
2022/11/12 08:44:16;;;;;;;;;;;;;;;8.15;99.20;103142.16;5030154;28;19959;-73
2022/11/12 08:46:41;;;;;;;;;;;;;;;8.16;99.32;103135.19;5020527;28;20263;-73
2022/11/12 08:49:06;;;;;;;;;;;;;;;8.16;99.37;103136.06;5028691;28;19920;-73
2022/11/12 08:51:32;;;;;;;;;;;;;;;8.17;99.60;103135.22;5031235;28;19924;-73
2022/11/12 08:53:57;;;;;;;;;;;;;;;8.19;99.79;103137.84;5031012;28;19913;-73
2022/11/12 08:56:22;;;;;;;;;;;;;;;8.19;99.95;103141.31;5032215;28;20085;-73
2022/11/12 08:58:47;;;;;;;;;;;;;;;8.20;100.00;103143.03;5035233;28;19943;-73
2022/11/12 09:01:13;;;;;;;;;;;;;;;8.21;100.00;103144.81;5026368;28;19986;-73
2022/11/12 09:03:38;;;;;;;;;;;;;;;8.21;100.00;103147.41;5033211;28;20024;-73
2022/11/12 09:06:04;;;;;;;;;;;;;;;8.22;100.00;103151.78;5020357;28;19913;-73
2022/11/12 09:08:32;;;;;;;;;;;;;;;8.24;100.00;103144.84;5039594;28;19913;-73
2022/11/12 09:10:58;;;;;;;;;;;;;;;8.25;100.00;103136.13;5030343;28;19917;-74
2022/11/12 09:13:23;;;;;;;;;;;;;;;8.27;100.00;103150.06;5033957;28;19909;-74
2022/11/12 09:15:48;;;;;;;;;;;;;;;8.28;100.00;103143.13;5028541;28;19920;-74
2022/11/12 09:18:15;;;;;;;;;;;;;;;8.30;100.00;103150.97;5036435;28;19996;-74
2022/11/12 09:20:40;;;;;;;;;;;;;;;8.31;100.00;103147.47;5035399;28;19917;-73
2022/11/12 09:23:07;;;;;;;;;;;;;;;8.32;100.00;103139.66;5038670;28;20143;-73
2022/11/12 09:25:33;;;;;;;;;;;;;;;8.34;100.00;103137.06;5028731;28;19959;-74
2022/11/12 09:28:04;;;;;;;;;;;;;;;8.34;100.00;103126.59;5039340;28;19917;-74
2022/11/12 09:30:30;;;;;;;;;;;;;;;8.36;100.00;103136.19;5020824;28;19917;-74
2022/11/12 09:32:56;;;;;;;;;;;;;;;8.38;100.00;103134.44;5037613;28;19924;-73
2022/11/12 09:35:21;;;;;;;;;;;;;;;8.39;100.00;103132.72;5030618;28;20112;-73
2022/11/12 09:37:46;;;;;;;;;;;;;;;8.40;100.00;103132.75;5025421;28;19948;-73
2022/11/12 09:40:16;;;;;;;;;;;;;;;8.43;100.00;103134.50;5025983;28;19921;-73
2022/11/12 09:42:43;;;;;;;;;;;;;;;8.45;100.00;103127.56;5018764;28;20242;-73
2022/11/12 09:45:25;;;;;;;;;;;;;;;8.47;100.00;103136.28;5026593;28;20204;-73
2022/11/12 09:47:56;;;;;;;;;;;;;;;8.49;100.00;103133.66;5021635;28;19925;-73
2022/11/12 09:50:21;;;;;;;;;;;;;;;8.51;100.00;103130.19;5036045;28;19924;-73
2022/11/12 09:52:49;;;;;;;;;;;;;;;8.52;100.00;103125.88;5036737;28;19918;-73
2022/11/12 09:55:19;;;;;;;;;;;;;;;8.56;100.00;103138.06;5037635;28;19932;-73
2022/11/12 09:57:45;;;;;;;;;;;;;;;8.56;100.00;103138.91;5020319;28;20131;-73
2022/11/12 10:00:17;;;;;;;;;;;;;;;8.58;100.00;103139.78;5032354;28;19936;-73
2022/11/12 10:02:49;;;;;;;;;;;;;;;8.60;100.00;103142.41;5027102;28;19917;-73
2022/11/12 10:05:23;;;;;;;;;;;;;;;8.63;100.00;103140.69;5029119;28;19987;-73
2022/11/12 10:07:58;;;;;;;;;;;;;;;8.67;100.00;103145.94;5027126;28;19928;-73
2022/11/12 10:10:32;;;;;;;;;;;;;;;8.71;100.00;103147.69;5051169;28;19968;-73
2022/11/12 10:13:16;;;;;;;;;;;;;;;8.73;100.00;103144.25;5014637;28;19916;-74
2022/11/12 10:18:43;;;;;;;;;;;;;;;8.81;100.00;103142.50;5018068;28;19920;-73
2022/11/12 10:21:11;;;;;;;;;;;;;;;8.85;100.00;103146.00;5036509;28;20131;-73
2022/11/12 10:23:44;;;;;;;;;;;;;;;8.90;100.00;103143.44;5037365;28;19919;-74
2022/11/12 10:26:11;;;;;;;;;;;;;;;8.94;100.00;103146.03;5037331;28;19916;-74
2022/11/12 10:28:41;;;;;;;;;;;;;;;8.99;100.00;103143.44;5025802;28;19952;-74
2022/11/12 10:31:13;;;;;;;;;;;;;;;9.03;100.00;103140.84;5030498;28;19905;-74
2022/11/12 10:33:39;;;;;;;;;;;;;;;9.08;100.00;103134.72;5016741;28;19921;-74
2022/11/12 10:36:12;;;;;;;;;;;;;;;9.12;100.00;103145.22;5036015;28;19917;-74
2022/11/12 10:38:41;;;;;;;;;;;;;;;9.16;100.00;103151.31;5028179;28;20108;-74
2022/11/12 10:41:20;;;;;;;;;;;;;;;9.20;100.00;103151.34;5033046;28;19948;-74
2022/11/12 10:43:52;;;;;;;;;;;;;;;9.25;100.00;103151.34;5021458;28;19917;-74
2022/11/12 10:46:19;;;;;;;;;;;;;;;9.28;100.00;103148.75;5027054;28;19912;-74
2022/11/12 10:48:52;;;;;;;;;;;;;;;9.33;100.00;103153.97;5033674;28;19909;-74
2022/11/12 10:51:25;;;;;;;;;;;;;;;9.34;100.00;103138.28;5035293;28;19923;-74
2022/11/12 10:53:50;;;;;;;;;;;;;;;9.38;100.00;103149.63;5034914;28;19920;-74
2022/11/12 10:56:29;;;;;;;;;;;;;;;9.43;100.00;103149.63;5035909;28;19979;-74
2022/11/12 10:59:13;;;;;;;;;;;;;;;9.45;100.00;103151.38;5035811;28;19948;-74
2022/11/12 11:01:39;;;;;;;;;;;;;;;9.48;100.00;103148.75;5037280;28;20262;-74
2022/11/12 11:04:05;;;;;;;;;;;;;;;9.52;100.00;103147.03;5025106;28;19913;-74
2022/11/12 11:06:30;;;;;;;;;;;;;;;9.55;100.00;103152.22;5034754;28;20124;-74
2022/11/12 11:09:11;;;;;;;;;;;;;;;9.56;100.00;103152.25;5019526;28;19932;-73
2022/11/12 11:11:36;;;;;;;;;;;;;;;9.60;100.00;103140.03;5024471;28;19917;-74
2022/11/12 11:14:20;;;;;;;;;;;;;;;9.64;100.00;103133.06;5025882;28;19916;-74
2022/11/12 11:16:50;;;;;;;;;;;;;;;9.68;100.00;103134.78;5027478;28;19921;-74
2022/11/12 11:19:15;;;;;;;;;;;;;;;9.72;100.00;103133.94;5024275;28;19923;-74
2022/11/12 11:21:56;;;;;;;;;;;;;;;9.76;100.00;103119.97;5029533;28;19963;-74
2022/11/12 11:24:21;;;;;;;;;;;;;;;9.80;100.00;103119.09;5032660;28;19916;-74
2022/11/12 11:26:59;;;;;;;;;;;;;;;9.83;100.00;103121.72;5032357;28;20362;-74
2022/11/12 11:29:43;;;;;;;;;;;;;;;9.86;100.00;103116.50;5027535;28;20054;-74
2022/11/12 11:32:20;;;;;;;;;;;;;;;9.90;100.00;103110.38;5030844;28;19916;-74
2022/11/12 11:34:51;;;;;;;;;;;;;;;9.94;100.00;103109.47;5014757;28;19921;-74
2022/11/12 11:37:27;;;;;;;;;;;;;;;9.98;100.00;103105.13;5036862;28;19920;-74
2022/11/12 11:40:01;;;;;;;;;;;;;;;10.03;99.21;103107.72;5012670;28;20293;-74
2022/11/12 11:42:33;;;;;;;;;;;;;;;10.09;98.77;103105.09;5017429;28;19921;-74
2022/11/12 11:45:07;;;;;;;;;;;;;;;10.14;98.75;103096.34;5018906;28;19917;-74
2022/11/12 11:47:41;;;;;;;;;;;;;;;10.19;97.43;103091.97;5037225;28;19952;-74
2022/11/12 11:50:09;;;;;;;;;;;;;;;10.26;97.04;103092.84;5021188;28;20204;-74
2022/11/12 11:52:34;;;;;;;;;;;;;;;10.31;96.68;103091.06;5032597;28;19904;-74
2022/11/12 11:55:06;;;;;;;;;;;;;;;10.34;96.65;103067.50;5032303;28;19916;-74
2022/11/12 11:57:39;;;;;;;;;;;;;;;10.38;96.16;103069.22;5033725;28;19913;-74
2022/11/12 12:00:10;;;;;;;;;;;;;;;10.41;94.74;103065.75;5017952;28;19916;-74
2022/11/12 12:02:54;;;;;;;;;;;;;;;10.46;95.55;103058.72;5017208;28;19941;-74
2022/11/12 12:05:26;;;;;;;;;;;;;;;10.50;94.73;103054.34;5017867;28;19952;-74
2022/11/12 12:07:57;;;;;;;;;;;;;;;10.55;95.61;103057.78;5017734;28;19916;-74
2022/11/12 12:10:36;;;;;;;;;;;;;;;10.58;94.17;103052.53;5019138;28;19924;-74
2022/11/12 12:13:05;;;;;;;;;;;;;;;10.62;93.80;103056.03;5024432;28;19961;-74
2022/11/12 12:15:44;;;;;;;;;;;;;;;10.66;94.10;103050.78;5019550;28;19944;-74
2022/11/12 12:18:24;;;;;;;;;;;;;;;10.72;94.04;103048.09;5020010;28;19920;-74
2022/11/12 12:21:08;;;;;;;;;;;;;;;10.75;92.94;103044.56;5025009;28;19929;-74
2022/11/12 12:23:39;;;;;;;;;;;;;;;10.80;93.52;103039.31;5028096;28;19925;-74
2022/11/12 12:26:10;;;;;;;;;;;;;;;10.85;93.77;103045.41;5026947;28;19952;-74
2022/11/12 12:28:35;;;;;;;;;;;;;;;10.89;92.93;103044.50;5035180;28;19909;-74
2022/11/12 12:31:04;;;;;;;;;;;;;;;10.93;93.21;103035.72;5017064;28;20032;-74
2022/11/12 12:33:29;;;;;;;;;;;;;;;10.96;92.59;103033.09;5025657;28;19921;-74
2022/11/12 12:35:58;;;;;;;;;;;;;;;10.99;91.92;103032.19;5023306;28;19905;-74
2022/11/12 12:38:30;;;;;;;;;;;;;;;11.02;91.77;103021.69;5036380;28;20212;-74
2022/11/12 12:41:09;;;;;;;;;;;;;;;11.05;91.08;103027.78;5030970;28;19980;-74
2022/11/12 12:43:44;;;;;;;;;;;;;;;11.10;91.58;103018.13;5023918;28;20201;-74
2022/11/12 12:46:11;;;;;;;;;;;;;;;11.13;89.85;103015.47;5014391;28;19921;-74
2022/11/12 12:48:39;;;;;;;;;;;;;;;11.20;90.31;103016.28;5025750;28;19979;-74
2022/11/12 12:51:04;;;;;;;;;;;;;;;11.25;90.83;103016.25;5030977;28;20243;-74
2022/11/12 12:53:31;;;;;;;;;;;;;;;11.30;90.63;103014.47;5031244;28;19992;-74
2022/11/12 12:56:01;;;;;;;;;;;;;;;11.33;89.63;103017.94;5031124;28;19960;-74
2022/11/12 12:58:27;;;;;;;;;;;;;;;11.39;89.99;103008.25;5030629;28;19955;-74
2022/11/12 13:00:55;;;;;;;;;;;;;;;11.43;90.38;103002.97;5024360;28;19909;-74
2022/11/12 13:03:39;;;;;;;;;;;;;;;11.47;90.44;102996.78;5027770;28;19924;-74